DW4230 West Island MA US current weather conditions

sailwx.info

Wind from 261 at 6 knots gusting 11

Air temperature 2.2° C
Dewpoint -4.1° C

Last reported at 2020-Jan-27 12:01 UTC.
Time now 2020-Jan-27 12:53 UTC

Location: N 41°36' W 070°50'.
View on Google Maps.

See reports from other nearby stations

  
Tides and Currents Weather Stations Pressure Air Temp Water Temp Dewpoint Dewpoint Depression Visibility Wind Speed Wind Dir Waves Ship Positions
date/time (UTC)wind fromknots sea level pressurealtimeterstation pressurevisibilityair tempwater tempwave heightnotes
2020-Jan-27 12:01 261 6 gusting 11 2.2
2020-Jan-27 11:45 264 6 gusting 11 2.2
2020-Jan-27 11:30 271 6 gusting 10 2.2
2020-Jan-27 11:16 247 5 gusting 11 2.2
2020-Jan-27 11:00 270 4 gusting 11 2.2
2020-Jan-27 10:46 258 7 gusting 12 2.2
2020-Jan-27 10:30 229 7 gusting 13 2.2
2020-Jan-27 10:15 257 6 gusting 13 2.2
2020-Jan-27 10:00 254 7 gusting 11 2.2
2020-Jan-27 09:45 272 6 gusting 12 2.8
2020-Jan-27 09:17 245 6 gusting 8 2.2
2020-Jan-27 08:30 252 1 gusting 4 1.1
2020-Jan-27 08:15 255 1.7
2020-Jan-27 08:00 255 1.7
2020-Jan-27 07:46 255 0 gusting 4 2.2
2020-Jan-27 07:31 252 4 gusting 6 2.2
2020-Jan-27 07:15 267 2.8
2020-Jan-27 07:00 267 2 gusting 5 2.8
2020-Jan-27 06:45 263 2 gusting 5 2.8
2020-Jan-27 06:30 260 2 gusting 5 2.8
2020-Jan-27 06:15 269 2 gusting 6 3.3
2020-Jan-27 06:01 253 2 gusting 6 3.3
2020-Jan-27 05:45 270 3 gusting 8 3.3
2020-Jan-27 05:31 268 4 gusting 7 3.3
2020-Jan-27 05:15 277 4 gusting 9 3.9
2020-Jan-27 05:01 277 4 gusting 8 3.9
2020-Jan-27 04:47 271 4 gusting 9 3.9
2020-Jan-27 04:31 260 5 gusting 10 3.9
2020-Jan-27 04:16 227 6 gusting 10 3.9
2020-Jan-27 04:02 255 4 gusting 8 3.3
2020-Jan-27 03:46 268 5 gusting 9 3.3
2020-Jan-27 03:31 264 5 gusting 11 3.3
2020-Jan-27 03:16 265 6 gusting 10 3.9
2020-Jan-27 02:45 269 4 gusting 10 3.9
2020-Jan-27 02:30 258 6 gusting 11 3.9
2020-Jan-27 02:15 260 5 gusting 9 3.9
2020-Jan-27 02:00 260 4 gusting 7 3.9
2020-Jan-27 01:45 257 5 gusting 8 3.9
2020-Jan-27 01:30 254 3 gusting 6 3.9
2020-Jan-27 01:16 257 3 gusting 6 3.9
2020-Jan-27 01:01 277 2 gusting 6 4.4
2020-Jan-27 00:46 283 1 gusting 5 4.4
2020-Jan-27 00:31 269 3 gusting 6 4.4
2020-Jan-27 00:16 271 2 gusting 6 4.4
2020-Jan-27 00:02 266 2 gusting 6 4.4
2020-Jan-26 23:45 270 2 gusting 6 5.0
2020-Jan-26 23:30 270 2 gusting 6 5.0
2020-Jan-26 23:16 293 5.6
2020-Jan-26 23:00 287 1 gusting 6 5.6
2020-Jan-26 22:45 276 2 gusting 7 5.6
2020-Jan-26 22:31 266 4 gusting 13 5.6
2020-Jan-26 22:15 258 5 gusting 10 5.0
2020-Jan-26 22:02 251 5 gusting 10 5.0
2020-Jan-26 21:45 252 7 gusting 13 5.0
2020-Jan-26 21:31 232 7 gusting 16 5.0
2020-Jan-26 21:16 254 8 gusting 13 5.0
2020-Jan-26 21:01 218 8 gusting 15 5.6
2020-Jan-26 20:46 235 8 gusting 14 5.6
2020-Jan-26 20:31 247 7 gusting 14 5.6
2020-Jan-26 20:16 243 6 gusting 15 5.6
2020-Jan-26 20:02 249 6 gusting 15 5.6
2020-Jan-26 19:45 260 8 gusting 16 5.0
2020-Jan-26 19:30 251 9 gusting 17 6.1
2020-Jan-26 19:16 258 11 gusting 19 6.7
2020-Jan-26 19:01 239 8 gusting 18 6.1
2020-Jan-26 18:47 203 7 gusting 16 6.7
2020-Jan-26 18:31 251 10 gusting 20 6.7
2020-Jan-26 18:17 213 10 gusting 19 6.7
2020-Jan-26 17:45 252 9 gusting 15 6.1
2020-Jan-26 17:31 250 5 gusting 12 8.3
2020-Jan-26 17:17 272 6 gusting 14 7.8
2020-Jan-26 17:01 275 4 gusting 11 7.8
2020-Jan-26 16:47 308 5 gusting 12 7.8
2020-Jan-26 16:30 282 4 gusting 13 7.2
2020-Jan-26 16:15 285 4 gusting 13 7.2
2020-Jan-26 16:00 306 4 gusting 10 6.7
2020-Jan-26 15:46 288 5 gusting 9 6.1
2020-Jan-26 15:31 297 5 gusting 11 6.1
2020-Jan-26 15:16 275 5 gusting 11 5.6
2020-Jan-26 15:01 289 4 gusting 13 5.6
2020-Jan-26 14:30 283 5 gusting 10 5.0
2020-Jan-26 14:15 235 3 gusting 9 5.6
2020-Jan-26 14:00 266 3 gusting 11 5.6
2020-Jan-26 13:46 273 3 gusting 11 5.0
2020-Jan-26 13:32 264 4 gusting 10 5.0
2020-Jan-26 13:16 277 5 gusting 11 5.6
2020-Jan-26 13:01 274 4 gusting 10 5.6
2020-Jan-26 12:46 270 3 gusting 9 5.6
2020-Jan-26 12:31 274 2 gusting 9 5.6
2020-Jan-26 12:18 279 4 gusting 9 5.6
2020-Jan-26 12:01 249 4 gusting 6 5.6
2020-Jan-26 11:47 272 4 gusting 8 5.6
2020-Jan-26 11:31 264 4 gusting 9 5.6
2020-Jan-26 11:17 255 5 gusting 9 5.6
2020-Jan-26 11:02 257 6 gusting 11 5.6
2020-Jan-26 10:47 253 6 gusting 10 5.6
2020-Jan-26 10:31 254 5 gusting 8 5.6
2020-Jan-26 10:16 215 5 gusting 8 5.0
2020-Jan-26 10:01 245 3 gusting 9 5.0
2020-Jan-26 09:46 261 5 gusting 10 5.0
2020-Jan-26 09:30 202 6 gusting 13 5.0
2020-Jan-26 09:15 221 5 gusting 9 5.0
2020-Jan-26 09:01 216 6 gusting 12 5.0
2020-Jan-26 08:45 229 7 gusting 13 5.6
2020-Jan-26 08:32 233 8 gusting 13 5.6
2020-Jan-26 08:16 248 6 gusting 12 5.6
2020-Jan-26 08:01 236 6 gusting 12 5.0
2020-Jan-26 07:47 223 6 gusting 13 5.0
2020-Jan-26 07:31 223 6 gusting 9 5.6
2020-Jan-26 07:16 237 5 gusting 13 5.6
2020-Jan-26 07:01 218 6 gusting 9 5.6
2020-Jan-26 06:47 224 4 gusting 8 5.6
2020-Jan-26 06:33 218 4 gusting 6 6.1
2020-Jan-26 06:18 217 5 gusting 8 6.7
2020-Jan-26 06:01 250 4 gusting 9 6.7
2020-Jan-26 05:15 263 6 gusting 12 7.8
2020-Jan-26 05:00 260 7 gusting 12 7.2
2020-Jan-26 04:45 219 6 gusting 10 7.2
2020-Jan-26 04:31 222 6 gusting 13 7.8
2020-Jan-26 04:16 219 7 gusting 15 8.3
2020-Jan-26 04:03 198 8 gusting 16 9.4
2020-Jan-26 03:46 164 6 gusting 18 10.0
2020-Jan-26 03:31 136 7 gusting 14 10.0
2020-Jan-26 03:17 172 7 gusting 16 10.0
2020-Jan-26 03:02 181 6 gusting 17 10.6
2020-Jan-26 02:46 163 8 gusting 21 10.0
2020-Jan-26 02:31 171 9 gusting 23 10.0
2020-Jan-26 02:18 119 5 gusting 18 7.8
2020-Jan-26 02:01 129 7 gusting 16 7.8
2020-Jan-26 01:45 133 6 gusting 17 7.2
2020-Jan-26 01:30 104 6 gusting 13 6.7
2020-Jan-26 01:17 175 6 gusting 17 6.7
2020-Jan-26 01:01 129 6 gusting 18 6.1
2020-Jan-26 00:30 093 10 gusting 26 6.7
2020-Jan-26 00:00 175 8 gusting 19 6.7
2020-Jan-25 23:45 089 13 gusting 24 6.7
2020-Jan-25 23:30 129 9 gusting 20 6.7
2020-Jan-25 23:16 119 7 gusting 20 6.7
2020-Jan-25 23:00 102 8 gusting 19 6.7
2020-Jan-25 22:45 062 6 gusting 13 6.1
2020-Jan-25 22:30 097 6 gusting 16 6.1
2020-Jan-25 22:15 101 6 gusting 16 6.1
2020-Jan-25 22:00 177 6 gusting 14 6.7
2020-Jan-25 21:45 155 7 gusting 18 6.7
2020-Jan-25 21:30 083 9 gusting 21 6.7
2020-Jan-25 21:02 119 8 gusting 16 7.2
2020-Jan-25 20:47 147 6 gusting 14 7.2
2020-Jan-25 20:31 055 5 gusting 13 7.2
2020-Jan-25 20:17 093 7 gusting 18 7.2
2020-Jan-25 20:02 060 7 gusting 16 7.2
2020-Jan-25 19:48 064 7 gusting 15 7.2
2020-Jan-25 19:32 088 6 gusting 14 7.2
2020-Jan-25 19:17 080 6 gusting 12 7.2
2020-Jan-25 19:00 074 6 gusting 12 7.2
2020-Jan-25 18:45 058 6 gusting 14 7.2
2020-Jan-25 18:31 079 7 gusting 16 7.2
2020-Jan-25 18:16 082 6 gusting 15 7.2
2020-Jan-25 18:01 119 5 gusting 13 7.2
2020-Jan-25 17:46 085 6 gusting 13 7.2
2020-Jan-25 17:15 113 6 gusting 12 7.2
2020-Jan-25 17:00 051 5 gusting 13 6.7
2020-Jan-25 16:45 083 4 gusting 14 6.7
2020-Jan-25 16:30 042 5 gusting 13 6.7
2020-Jan-25 16:15 053 6 gusting 11 6.1
2020-Jan-25 16:00 129 7 gusting 13 6.1
2020-Jan-25 15:46 111 6 gusting 13 6.7
2020-Jan-25 15:31 085 5 gusting 13 6.1
2020-Jan-25 15:15 095 6 gusting 13 6.1
2020-Jan-25 15:01 090 5 gusting 14 6.1
2020-Jan-25 14:46 080 6 gusting 15 6.1
2020-Jan-25 14:30 047 6 gusting 13 6.1
2020-Jan-25 14:17 080 4 gusting 14 5.6
2020-Jan-25 13:32 052 3 gusting 9 5.0
2020-Jan-25 13:16 082 6 gusting 11 4.4
2020-Jan-25 13:01 061 6 gusting 13 4.4
2020-Jan-25 12:47 102 6 gusting 11 4.4
2020-Jan-25 12:32 078 5 gusting 11 4.4
2020-Jan-25 12:17 051 6 gusting 10 3.9
2020-Jan-25 12:01 065 6 gusting 12 3.9